createdAt,value
2022-10-11T00:01:18.851Z,24.50
2022-10-11T00:04:20.993Z,25.00
2022-10-11T00:07:23.339Z,32.00
2022-10-11T00:10:25.715Z,30.50
2022-10-11T00:13:28.269Z,22.75
2022-10-11T00:16:30.280Z,29.25
2022-10-11T00:19:32.460Z,30.25
2022-10-11T00:22:36.030Z,23.50
2022-10-11T00:25:39.219Z,27.25
2022-10-11T00:28:42.360Z,26.00
2022-10-11T00:31:44.798Z,29.00
2022-10-11T00:34:46.776Z,23.75
2022-10-11T00:37:49.173Z,24.50
2022-10-11T00:40:51.403Z,27.00
2022-10-11T00:44:15.445Z,25.75
2022-10-11T00:47:19.943Z,26.00
2022-10-11T00:50:23.758Z,28.50
2022-10-11T00:53:26.354Z,27.25
2022-10-11T00:56:34.338Z,33.50
2022-10-11T00:59:40.425Z,27.00
2022-10-11T01:02:43.257Z,32.50
2022-10-11T01:05:46.242Z,26.75
2022-10-11T01:08:48.700Z,26.50
2022-10-11T01:11:52.469Z,29.75
2022-10-11T01:15:13.235Z,23.00
2022-10-11T01:18:44.103Z,27.50
2022-10-11T01:22:06.540Z,28.00
2022-10-11T01:25:32.791Z,29.75
2022-10-11T01:28:35.129Z,25.50
2022-10-11T01:32:00.547Z,29.25
2022-10-11T01:35:07.646Z,29.50
2022-10-11T01:38:33.191Z,27.25
2022-10-11T01:41:41.665Z,23.75
2022-10-11T01:44:47.346Z,22.50
2022-10-11T01:48:01.838Z,23.50
2022-10-11T01:51:04.117Z,23.75
2022-10-11T01:54:19.576Z,30.25
2022-10-11T01:57:41.755Z,21.00
2022-10-11T02:00:55.468Z,30.25
2022-10-11T02:04:05.417Z,27.75
2022-10-11T02:07:12.302Z,26.75
2022-10-11T02:10:24.990Z,24.75
2022-10-11T02:13:40.132Z,27.25
2022-10-11T02:16:58.600Z,22.75
2022-10-11T02:20:04.780Z,26.75
2022-10-11T02:23:14.022Z,24.00
2022-10-11T02:26:17.238Z,25.00
2022-10-11T02:29:20.718Z,28.75
2022-10-11T02:32:24.590Z,30.50
2022-10-11T02:35:29.935Z,27.00
2022-10-11T02:38:40.389Z,26.25
2022-10-11T02:41:43.243Z,29.00
2022-10-11T02:45:10.316Z,28.00
2022-10-11T02:48:12.796Z,27.25
2022-10-11T02:51:15.195Z,24.50
2022-10-11T02:54:17.442Z,28.00
2022-10-11T02:57:19.817Z,26.25
2022-10-11T03:00:21.870Z,25.75
2022-10-11T03:03:24.050Z,26.00
2022-10-11T03:06:26.057Z,28.00
2022-10-11T03:09:28.276Z,25.75
2022-10-11T03:12:30.401Z,31.25
2022-10-11T03:15:32.964Z,29.75
2022-10-11T03:18:35.463Z,24.00
2022-10-11T03:21:37.966Z,30.75
2022-10-11T03:24:40.119Z,26.25
2022-10-11T03:27:42.407Z,26.25
2022-10-11T03:30:47.728Z,30.75
2022-10-11T03:33:50.250Z,31.75
2022-10-11T03:36:52.225Z,29.75
2022-10-11T03:39:54.547Z,32.00
2022-10-11T03:42:57.404Z,30.75
2022-10-11T03:45:59.681Z,26.50
2022-10-11T03:49:02.105Z,27.75
2022-10-11T03:52:04.438Z,32.00
2022-10-11T03:55:07.321Z,32.00
2022-10-11T03:58:09.659Z,30.75
2022-10-11T04:01:11.670Z,31.75
2022-10-11T04:04:13.834Z,24.25
2022-10-11T04:07:15.954Z,33.50
2022-10-11T04:10:18.234Z,25.00
2022-10-11T04:13:20.295Z,33.25
2022-10-11T04:16:22.694Z,24.00
2022-10-11T04:19:24.845Z,30.75
2022-10-11T04:22:27.290Z,23.50
2022-10-11T04:25:29.488Z,25.50
2022-10-11T04:28:31.893Z,26.25
2022-10-11T04:31:33.993Z,31.50
2022-10-11T04:34:36.234Z,29.75
2022-10-11T04:37:38.280Z,27.75
2022-10-11T04:40:40.550Z,28.50
2022-10-11T04:43:42.954Z,30.50
2022-10-11T04:46:45.214Z,29.75
2022-10-11T04:49:47.278Z,27.00
2022-10-11T04:52:49.521Z,28.25
2022-10-11T04:56:02.034Z,30.50
2022-10-11T04:59:04.502Z,29.75
2022-10-11T05:02:06.569Z,33.33
2022-10-11T05:05:09.487Z,21.75
2022-10-11T05:08:11.802Z,28.00
2022-10-11T05:11:16.229Z,23.25
2022-10-11T05:14:18.592Z,31.33
2022-10-11T05:17:20.829Z,35.00
2022-10-11T05:20:23.308Z,32.33
2022-10-11T05:23:25.682Z,31.00
2022-10-11T05:26:29.022Z,27.75
2022-10-11T05:29:31.294Z,27.25
2022-10-11T05:32:33.709Z,31.67
2022-10-11T05:35:36.027Z,32.00
2022-10-11T05:38:38.428Z,33.25
2022-10-11T05:41:40.645Z,27.25
2022-10-11T05:44:42.967Z,26.67
2022-10-11T05:47:45.177Z,31.00
2022-10-11T05:50:47.615Z,37.33
2022-10-11T05:53:49.981Z,38.67
2022-10-11T05:56:52.042Z,36.67
2022-10-11T05:59:54.318Z,43.00
2022-10-11T06:02:56.395Z,40.33
2022-10-11T06:06:02.416Z,38.33
2022-10-11T06:09:04.504Z,43.00
2022-10-11T06:12:06.855Z,46.75
2022-10-11T06:15:10.842Z,45.00
2022-10-11T06:18:13.835Z,45.67
2022-10-11T06:21:15.953Z,43.67
2022-10-11T06:24:18.230Z,50.25
2022-10-11T06:27:20.349Z,48.50
2022-10-11T06:30:22.621Z,45.25
2022-10-11T06:33:25.190Z,46.00
2022-10-11T06:36:27.879Z,53.00
2022-10-11T06:39:29.990Z,53.50
2022-10-11T06:42:32.156Z,46.50
2022-10-11T06:45:34.176Z,44.00
2022-10-11T06:48:40.321Z,53.00
2022-10-11T06:51:42.409Z,55.75
2022-10-11T06:54:45.675Z,57.50
2022-10-11T06:57:47.776Z,44.50
2022-10-11T07:00:50.008Z,56.25
2022-10-11T07:03:53.744Z,47.00
2022-10-11T07:06:56.032Z,50.00
2022-10-11T07:09:58.434Z,47.00
2022-10-11T07:13:00.630Z,46.75
2022-10-11T07:16:05.146Z,45.50
2022-10-11T07:19:07.787Z,48.50
2022-10-11T07:22:09.960Z,50.00
2022-10-11T07:25:12.191Z,46.00
2022-10-11T07:28:14.428Z,42.75
2022-10-11T07:31:23.201Z,42.50
2022-10-11T07:34:25.357Z,39.25
2022-10-11T07:37:27.656Z,46.50
2022-10-11T07:40:29.736Z,41.75
2022-10-11T07:43:32.452Z,43.75
2022-10-11T07:46:34.542Z,41.50
2022-10-11T07:49:36.829Z,40.25
2022-10-11T07:52:39.117Z,44.25
2022-10-11T07:55:42.298Z,40.75
2022-10-11T07:58:44.669Z,36.00
2022-10-11T08:01:49.936Z,34.00
2022-10-11T08:04:52.154Z,35.75
2022-10-11T08:07:54.440Z,34.25
2022-10-11T08:10:57.072Z,37.00
2022-10-11T08:14:00.118Z,35.50
2022-10-11T08:17:02.479Z,35.50
2022-10-11T08:20:05.244Z,34.50
2022-10-11T08:23:09.652Z,34.00
2022-10-11T08:26:12.466Z,32.00
2022-10-11T08:29:14.613Z,33.00
2022-10-11T08:32:16.833Z,22.50
2022-10-11T08:35:18.894Z,23.25
2022-10-11T08:38:21.467Z,24.75
2022-10-11T08:41:29.499Z,21.75
2022-10-11T08:45:09.992Z,28.25
2022-10-11T08:48:20.925Z,23.00
2022-10-11T08:51:30.747Z,24.00
2022-10-11T08:54:47.211Z,22.25
2022-10-11T08:57:54.107Z,3.50
2022-10-11T09:00:56.980Z,12.25
2022-10-11T09:04:00.208Z,22.25
2022-10-11T09:07:16.171Z,20.25
2022-10-11T09:10:46.010Z,18.75
2022-10-11T09:14:12.697Z,19.25
2022-10-11T09:17:42.065Z,21.00
2022-10-11T09:21:14.969Z,15.25
2022-10-11T09:24:19.896Z,14.00
2022-10-11T09:28:02.218Z,14.00
2022-10-11T09:31:09.802Z,14.00
2022-10-11T09:34:14.221Z,17.00
2022-10-11T09:37:35.146Z,15.50
2022-10-11T09:41:05.587Z,14.75
2022-10-11T09:44:08.626Z,12.75
2022-10-11T09:47:15.540Z,16.75
2022-10-11T09:50:21.545Z,12.50
2022-10-11T09:53:56.640Z,12.00
2022-10-11T09:56:59.105Z,9.25
2022-10-11T10:00:07.616Z,9.25
2022-10-11T10:03:29.656Z,10.25
2022-10-11T10:06:32.013Z,13.00
2022-10-11T10:09:34.240Z,10.50
2022-10-11T10:12:36.284Z,8.75
2022-10-11T10:15:46.033Z,11.25
2022-10-11T10:18:52.803Z,10.00
2022-10-11T10:21:55.926Z,9.50
2022-10-11T10:25:00.644Z,9.00
2022-10-11T10:28:05.296Z,8.50
2022-10-11T10:31:22.205Z,10.00
2022-10-11T10:34:31.600Z,7.00
2022-10-11T10:37:43.595Z,6.00
2022-10-11T10:40:54.098Z,6.00
2022-10-11T10:43:57.627Z,9.75
2022-10-11T10:47:19.539Z,7.75
2022-10-11T10:50:27.856Z,5.25
2022-10-11T10:54:12.025Z,8.00
2022-10-11T10:57:20.087Z,5.00
2022-10-11T11:00:23.669Z,7.00
2022-10-11T11:03:45.925Z,5.00
2022-10-11T11:07:02.710Z,7.50
2022-10-11T11:10:11.338Z,7.00
2022-10-11T11:13:41.447Z,5.50
2022-10-11T11:17:18.790Z,5.25
2022-10-11T11:20:32.926Z,5.25
2022-10-11T11:23:45.726Z,8.25
2022-10-11T11:27:06.138Z,4.75
2022-10-11T11:30:34.337Z,7.00
2022-10-11T11:33:48.537Z,4.25
2022-10-11T11:37:00.862Z,4.25
2022-10-11T11:40:41.982Z,6.00
2022-10-11T11:44:02.024Z,5.25
2022-10-11T11:47:17.782Z,5.25
2022-10-11T11:50:27.935Z,7.50
2022-10-11T11:53:52.421Z,5.25
2022-10-11T11:57:00.991Z,6.00
2022-10-11T12:00:14.780Z,2.00
2022-10-11T12:03:24.288Z,3.00
2022-10-11T12:06:30.242Z,4.00
2022-10-11T12:09:36.713Z,4.50
2022-10-11T12:12:39.322Z,5.50
2022-10-11T12:15:59.192Z,4.75
2022-10-11T12:19:03.379Z,4.00
2022-10-11T12:22:30.005Z,4.00
2022-10-11T12:25:36.532Z,5.33
2022-10-11T12:28:41.889Z,4.67
2022-10-11T12:31:46.352Z,4.00
2022-10-11T12:34:48.460Z,6.00
2022-10-11T12:37:51.785Z,4.33
2022-10-11T12:41:25.607Z,4.50
2022-10-11T12:44:29.155Z,5.00
2022-10-11T12:48:08.385Z,3.67
2022-10-11T12:51:35.296Z,6.50
2022-10-11T12:55:23.653Z,3.75
2022-10-11T12:58:47.145Z,2.67
2022-10-11T13:01:53.152Z,3.25
2022-10-11T13:05:27.910Z,4.00
2022-10-11T13:08:35.718Z,4.00
2022-10-11T13:11:53.026Z,2.33
2022-10-11T13:15:07.035Z,2.67
2022-10-11T13:18:14.487Z,2.25
2022-10-11T13:21:32.123Z,4.25
2022-10-11T13:24:39.782Z,3.00
2022-10-11T13:27:42.028Z,2.00
2022-10-11T13:30:46.892Z,2.33
2022-10-11T13:33:49.133Z,2.00
2022-10-11T13:36:56.478Z,3.25
2022-10-11T13:39:58.744Z,2.00
2022-10-11T13:43:01.132Z,4.00
2022-10-11T13:46:05.349Z,4.25
2022-10-11T13:49:28.229Z,1.75
2022-10-11T13:52:30.225Z,4.00
2022-10-11T13:55:34.084Z,1.75
2022-10-11T13:58:40.588Z,4.00
2022-10-11T14:01:45.170Z,3.00
2022-10-11T14:04:48.690Z,4.75
2022-10-11T14:07:51.206Z,3.75
2022-10-11T14:10:57.758Z,4.75
2022-10-11T14:14:29.944Z,3.75
2022-10-11T14:17:38.875Z,4.75
2022-10-11T14:20:42.005Z,5.25
2022-10-11T14:23:44.123Z,3.00
2022-10-11T14:26:54.773Z,5.75
2022-10-11T14:30:20.257Z,7.50
2022-10-11T14:33:26.356Z,4.00
2022-10-11T14:36:28.438Z,8.50
2022-10-11T14:39:32.603Z,4.00
2022-10-11T14:42:34.626Z,6.00
2022-10-11T14:45:37.416Z,4.50
2022-10-11T14:48:56.311Z,5.00
2022-10-11T14:51:59.711Z,5.50
2022-10-11T14:55:02.340Z,6.50
2022-10-11T14:58:06.505Z,4.00
2022-10-11T15:01:16.715Z,7.00
2022-10-11T15:04:23.720Z,4.50
2022-10-11T15:07:25.812Z,5.00
2022-10-11T15:10:31.516Z,4.00
2022-10-11T15:13:33.782Z,6.50
2022-10-11T15:16:36.165Z,7.50
2022-10-11T15:19:38.333Z,7.25
2022-10-11T15:22:40.703Z,5.00
2022-10-11T15:25:43.002Z,5.75
2022-10-11T15:28:45.926Z,4.75
2022-10-11T15:31:49.324Z,7.00
2022-10-11T15:34:51.780Z,6.75
2022-10-11T15:37:56.229Z,7.25
2022-10-11T15:40:59.780Z,8.00
2022-10-11T15:44:02.105Z,7.00
2022-10-11T15:47:04.500Z,10.75
2022-10-11T15:50:23.469Z,12.25
2022-10-11T15:53:30.211Z,11.50
2022-10-11T15:56:33.906Z,7.50
2022-10-11T15:59:36.376Z,9.50
2022-10-11T16:02:38.653Z,10.75
2022-10-11T16:05:41.377Z,9.00
2022-10-11T16:08:43.574Z,8.25
2022-10-11T16:11:45.964Z,8.25
2022-10-11T16:14:48.109Z,8.50
2022-10-11T16:17:50.673Z,10.75
2022-10-11T16:20:53.044Z,11.00
2022-10-11T16:23:55.406Z,9.00
2022-10-11T16:26:57.500Z,8.25
2022-10-11T16:30:00.345Z,9.25
2022-10-11T16:33:02.478Z,11.25
2022-10-11T16:36:26.217Z,11.75
2022-10-11T16:39:28.478Z,8.75
2022-10-11T16:42:30.912Z,16.50
2022-10-11T16:45:33.851Z,14.00
2022-10-11T16:48:35.992Z,12.00
2022-10-11T16:51:38.016Z,14.00
2022-10-11T16:54:44.457Z,14.75
2022-10-11T16:57:46.582Z,17.75
2022-10-11T17:00:48.952Z,18.00
2022-10-11T17:03:52.470Z,20.50
2022-10-11T17:06:55.237Z,13.25
2022-10-11T17:09:58.298Z,17.00
2022-10-11T17:13:01.038Z,21.00
2022-10-11T17:16:03.736Z,11.00
2022-10-11T17:19:11.563Z,25.00
2022-10-11T17:22:18.045Z,27.75
2022-10-11T17:25:20.680Z,25.25
2022-10-11T17:28:22.937Z,25.75
2022-10-11T17:31:25.820Z,29.75
2022-10-11T17:34:28.071Z,26.50
2022-10-11T17:37:30.445Z,31.25
2022-10-11T17:40:32.634Z,32.00
2022-10-11T17:43:35.080Z,36.75
2022-10-11T17:46:37.875Z,34.50
2022-10-11T17:49:40.100Z,38.75
2022-10-11T17:52:42.283Z,41.25
2022-10-11T17:55:44.913Z,42.25
2022-10-11T17:58:47.163Z,46.25
2022-10-11T18:01:50.695Z,47.50
2022-10-11T18:04:52.894Z,60.67
2022-10-11T18:07:55.372Z,52.25
2022-10-11T18:10:57.562Z,50.00
2022-10-11T18:14:00.278Z,57.33
2022-10-11T18:17:02.395Z,60.67
2022-10-11T18:20:05.085Z,45.00
2022-10-11T18:23:07.105Z,53.00
2022-10-11T18:26:11.450Z,49.00
2022-10-11T18:29:13.863Z,55.33
2022-10-11T18:32:18.243Z,55.00
2022-10-11T18:35:20.406Z,55.67
2022-10-11T18:38:22.701Z,47.33
2022-10-11T18:41:30.756Z,43.75
2022-10-11T18:44:33.201Z,48.00
2022-10-11T18:47:35.153Z,37.50
2022-10-11T18:50:37.602Z,54.00
2022-10-11T18:53:40.065Z,44.50
2022-10-11T18:56:42.797Z,47.33
2022-10-11T18:59:45.108Z,46.67
2022-10-11T19:02:47.588Z,41.33
2022-10-11T19:05:49.773Z,48.00
2022-10-11T19:09:04.645Z,43.67
2022-10-11T19:12:06.750Z,48.67
2022-10-11T19:15:09.457Z,34.67
2022-10-11T19:18:13.459Z,45.00
2022-10-11T19:21:18.266Z,38.00
2022-10-11T19:24:22.972Z,39.00
2022-10-11T19:27:25.438Z,47.00
2022-10-11T19:30:27.560Z,56.67
2022-10-11T19:33:31.687Z,50.67
2022-10-11T19:36:36.850Z,46.33
2022-10-11T19:39:39.505Z,49.00
2022-10-11T19:42:41.841Z,55.00
2022-10-11T19:45:44.264Z,59.00
2022-10-11T19:48:48.219Z,47.33
2022-10-11T19:51:51.274Z,56.67
2022-10-11T19:54:53.326Z,54.33
2022-10-11T19:57:55.687Z,48.00
2022-10-11T20:01:10.159Z,57.67
2022-10-11T20:04:33.208Z,58.67
2022-10-11T20:07:35.930Z,53.67
2022-10-11T20:10:38.331Z,56.00
2022-10-11T20:13:40.544Z,55.00
2022-10-11T20:16:43.471Z,63.00
2022-10-11T20:19:45.533Z,61.67
2022-10-11T20:22:48.312Z,60.00
2022-10-11T20:26:07.005Z,49.33
2022-10-11T20:29:09.474Z,57.33
2022-10-11T20:32:11.642Z,63.67
2022-10-11T20:35:14.028Z,54.67
2022-10-11T20:38:16.075Z,62.00
2022-10-11T20:41:21.657Z,56.00
2022-10-11T20:44:23.827Z,47.67
2022-10-11T20:47:26.253Z,56.00
2022-10-11T20:50:28.247Z,42.67
2022-10-11T20:53:30.546Z,50.33
2022-10-11T20:56:33.683Z,56.67
2022-10-11T20:59:35.859Z,51.67
2022-10-11T21:02:38.546Z,56.00
2022-10-11T21:05:41.013Z,55.00
2022-10-11T21:08:42.990Z,60.00
2022-10-11T21:11:45.609Z,49.67
2022-10-11T21:14:47.608Z,54.00
2022-10-11T21:17:50.737Z,55.00
2022-10-11T21:20:52.771Z,51.00
2022-10-11T21:23:59.922Z,46.33
2022-10-11T21:27:02.321Z,49.33
2022-10-11T21:30:04.963Z,50.67
2022-10-11T21:33:07.029Z,49.00
2022-10-11T21:36:17.513Z,46.67
2022-10-11T21:39:19.525Z,51.33
2022-10-11T21:42:25.872Z,43.00
2022-10-11T21:45:30.733Z,48.67
2022-10-11T21:48:33.303Z,50.00
2022-10-11T21:51:35.315Z,53.33
2022-10-11T21:54:37.721Z,47.00
2022-10-11T21:57:42.705Z,51.33
2022-10-11T22:00:47.004Z,44.33
2022-10-11T22:03:49.553Z,45.67
2022-10-11T22:06:51.820Z,43.67
2022-10-11T22:09:53.824Z,43.67
2022-10-11T22:12:56.086Z,48.00
2022-10-11T22:16:01.460Z,38.67
2022-10-11T22:19:06.804Z,48.67
2022-10-11T22:22:08.883Z,41.00
2022-10-11T22:25:11.086Z,49.00
2022-10-11T22:28:13.170Z,34.00
2022-10-11T22:31:17.222Z,41.00
2022-10-11T22:34:19.634Z,46.67
2022-10-11T22:37:21.823Z,43.00
2022-10-11T22:40:23.805Z,39.67
2022-10-11T22:43:26.000Z,41.33
2022-10-11T22:46:28.475Z,43.67
2022-10-11T22:49:30.662Z,39.00
2022-10-11T22:52:32.766Z,44.67
2022-10-11T22:55:35.262Z,16.67
2022-10-11T22:58:37.796Z,51.00
2022-10-11T23:01:40.172Z,44.33
2022-10-11T23:04:42.221Z,52.00
2022-10-11T23:07:46.625Z,37.00
2022-10-11T23:10:48.821Z,23.00
2022-10-11T23:13:51.103Z,41.67
2022-10-11T23:16:53.484Z,38.33
2022-10-11T23:19:56.282Z,33.33
2022-10-11T23:23:01.127Z,36.67
2022-10-11T23:26:08.521Z,43.00
2022-10-11T23:29:11.040Z,43.67
2022-10-11T23:32:13.331Z,45.33
2022-10-11T23:35:15.604Z,35.00
2022-10-11T23:38:17.837Z,42.00
2022-10-11T23:41:21.067Z,45.67
2022-10-11T23:44:23.396Z,42.33
2022-10-11T23:47:25.443Z,44.67
2022-10-11T23:50:27.620Z,38.00
2022-10-11T23:53:29.656Z,34.67
2022-10-11T23:56:32.009Z,38.67
2022-10-11T23:59:34.123Z,45.67
